createdAt,value
2019-04-27T00:00:01.233Z,99.90
2019-04-27T00:02:47.376Z,99.90
2019-04-27T00:05:44.238Z,99.90
2019-04-27T00:08:35.841Z,99.90
2019-04-27T00:11:20.078Z,99.90
2019-04-27T00:13:48.594Z,99.90
2019-04-27T00:16:33.852Z,99.90
2019-04-27T00:19:20.328Z,99.90
2019-04-27T00:22:04.264Z,99.90
2019-04-27T00:24:36.948Z,99.90
2019-04-27T00:27:05.830Z,99.90
2019-04-27T00:29:34.166Z,99.90
2019-04-27T00:32:04.252Z,99.90
2019-04-27T00:34:33.984Z,99.90
2019-04-27T00:37:16.587Z,99.90
2019-04-27T00:40:04.278Z,99.90
2019-04-27T00:42:33.337Z,99.90
2019-04-27T00:45:02.958Z,99.90
2019-04-27T00:47:34.869Z,99.90
2019-04-27T00:50:03.585Z,99.90
2019-04-27T00:52:32.619Z,99.90
2019-04-27T00:55:03.165Z,99.90
2019-04-27T00:57:49.615Z,99.90
2019-04-27T01:00:43.963Z,99.90
2019-04-27T01:03:20.380Z,99.90
2019-04-27T01:05:48.602Z,99.90
2019-04-27T01:08:19.047Z,99.90
2019-04-27T01:10:47.564Z,99.90
2019-04-27T01:13:15.906Z,99.90
2019-04-27T01:15:44.302Z,99.90
2019-04-27T01:18:15.400Z,99.90
2019-04-27T01:20:42.761Z,99.90
2019-04-27T01:23:11.006Z,99.90
2019-04-27T01:26:09.732Z,99.90
2019-04-27T01:28:43.820Z,99.90
2019-04-27T01:31:13.110Z,99.90
2019-04-27T01:33:41.367Z,99.90
2019-04-27T01:36:10.782Z,99.90
2019-04-27T01:38:41.008Z,99.90
2019-04-27T01:41:09.178Z,99.90
2019-04-27T01:43:38.788Z,99.90
2019-04-27T01:46:08.770Z,99.90
2019-04-27T01:48:38.714Z,99.90
2019-04-27T01:51:07.077Z,99.90
2019-04-27T01:53:35.421Z,99.90
2019-04-27T01:56:03.837Z,99.90
2019-04-27T01:58:32.112Z,99.90
2019-04-27T02:01:18.756Z,99.90
2019-04-27T02:04:09.618Z,99.90
2019-04-27T02:06:38.591Z,99.90
2019-04-27T02:09:08.491Z,99.90
2019-04-27T02:11:36.703Z,99.90
2019-04-27T02:14:05.060Z,99.90
2019-04-27T02:16:33.152Z,99.90
2019-04-27T02:19:01.319Z,99.90
2019-04-27T02:21:29.659Z,99.90
2019-04-27T02:23:59.661Z,99.90
2019-04-27T02:26:29.483Z,99.90
2019-04-27T02:29:19.960Z,99.90
2019-04-27T02:32:13.394Z,99.90
2019-04-27T02:34:52.308Z,99.90
2019-04-27T02:37:20.783Z,99.90
2019-04-27T02:39:50.161Z,99.90
2019-04-27T02:42:20.090Z,99.90
2019-04-27T02:44:49.378Z,99.90
2019-04-27T02:47:20.534Z,99.90
2019-04-27T02:49:50.397Z,99.90
2019-04-27T02:52:23.702Z,99.90
2019-04-27T02:54:52.301Z,99.90
2019-04-27T02:57:20.645Z,99.90
2019-04-27T02:59:50.248Z,99.90
2019-04-27T03:02:34.584Z,99.90
2019-04-27T03:05:05.051Z,99.90
2019-04-27T03:07:33.310Z,99.90
2019-04-27T03:10:02.682Z,99.90
2019-04-27T03:12:36.884Z,99.90
2019-04-27T03:15:34.260Z,99.90
2019-04-27T03:18:09.899Z,99.90
2019-04-27T03:20:51.422Z,99.90
2019-04-27T03:23:20.020Z,99.90
2019-04-27T03:26:12.325Z,99.90
2019-04-27T03:28:40.603Z,99.90
2019-04-27T03:31:13.420Z,99.90
2019-04-27T03:33:42.871Z,99.90
2019-04-27T03:36:12.437Z,99.90
2019-04-27T03:38:39.630Z,99.90
2019-04-27T03:41:09.522Z,99.90
2019-04-27T03:43:40.025Z,99.90
2019-04-27T03:46:10.147Z,99.90
2019-04-27T03:48:40.421Z,99.90
2019-04-27T03:51:23.398Z,99.90
2019-04-27T03:54:10.705Z,99.90
2019-04-27T03:57:02.342Z,99.90
2019-04-27T04:00:10.167Z,99.90
2019-04-27T04:02:40.483Z,99.90
2019-04-27T04:05:09.803Z,99.90
2019-04-27T04:07:40.201Z,99.90
2019-04-27T04:10:10.750Z,99.90
2019-04-27T04:12:55.771Z,99.90
2019-04-27T04:15:41.957Z,99.90
2019-04-27T04:18:10.381Z,99.90
2019-04-27T04:20:40.410Z,99.90
2019-04-27T04:23:10.644Z,99.90
2019-04-27T04:25:40.989Z,99.90
2019-04-27T04:28:09.415Z,99.90
2019-04-27T04:30:40.230Z,99.90
2019-04-27T04:33:10.151Z,99.90
2019-04-27T04:35:39.786Z,99.90
2019-04-27T04:38:10.417Z,99.90
2019-04-27T04:40:50.471Z,99.90
2019-04-27T04:43:29.541Z,99.90
2019-04-27T04:46:35.144Z,99.90
2019-04-27T04:49:03.447Z,99.90
2019-04-27T04:51:31.824Z,99.90
2019-04-27T04:54:00.209Z,99.90
2019-04-27T04:56:29.236Z,99.90
2019-04-27T04:58:59.818Z,99.90
2019-04-27T05:01:29.651Z,99.90
2019-04-27T05:03:59.035Z,99.90
2019-04-27T05:06:29.049Z,99.90
2019-04-27T05:08:57.210Z,99.90
2019-04-27T05:11:25.486Z,99.90
2019-04-27T05:13:53.577Z,99.90
2019-04-27T05:16:21.877Z,99.90
2019-04-27T05:18:50.197Z,99.90
2019-04-27T05:21:29.451Z,99.90
2019-04-27T05:24:00.804Z,99.90
2019-04-27T05:26:29.540Z,99.90
2019-04-27T05:28:59.313Z,99.90
2019-04-27T05:31:27.361Z,99.90
2019-04-27T05:33:56.833Z,99.90
2019-04-27T05:36:25.122Z,99.90
2019-04-27T05:38:53.311Z,99.90
2019-04-27T05:41:21.603Z,99.90
2019-04-27T05:44:10.904Z,99.90
2019-04-27T05:46:55.857Z,99.90
2019-04-27T05:49:44.638Z,99.90
2019-04-27T05:52:29.426Z,99.90
2019-04-27T05:54:59.026Z,99.90
2019-04-27T05:57:30.775Z,99.90
2019-04-27T06:00:01.095Z,99.90
2019-04-27T06:02:30.268Z,99.90
2019-04-27T06:05:00.095Z,99.90
2019-04-27T06:07:29.627Z,99.90
2019-04-27T06:09:59.844Z,99.90
2019-04-27T06:12:29.665Z,99.90
2019-04-27T06:14:59.909Z,99.90
2019-04-27T06:17:29.879Z,99.90
2019-04-27T06:19:59.498Z,99.90
2019-04-27T06:22:29.198Z,99.90
2019-04-27T06:24:59.751Z,99.90
2019-04-27T06:27:30.563Z,99.90
2019-04-27T06:29:59.295Z,99.90
2019-04-27T06:32:29.615Z,99.90
2019-04-27T06:34:59.059Z,99.90
2019-04-27T06:37:29.472Z,99.90
2019-04-27T06:39:59.401Z,99.90
2019-04-27T06:42:29.441Z,99.90
2019-04-27T06:44:57.574Z,99.90
2019-04-27T06:47:25.879Z,99.90
2019-04-27T06:49:54.114Z,99.90
2019-04-27T06:52:22.383Z,99.90
2019-04-27T06:54:50.510Z,99.90
2019-04-27T06:57:19.246Z,99.90
2019-04-27T06:59:48.362Z,99.90
2019-04-27T07:02:19.042Z,99.90
2019-04-27T07:04:48.948Z,99.90
2019-04-27T07:07:17.238Z,99.90
2019-04-27T07:09:45.343Z,99.90
2019-04-27T07:12:13.582Z,99.90
2019-04-27T07:14:52.286Z,99.90
2019-04-27T07:17:12.036Z,99.90
2019-04-27T07:19:40.360Z,99.90
2019-04-27T07:22:09.093Z,99.90
2019-04-27T07:24:38.810Z,99.20
2019-04-27T07:27:09.344Z,98.70
2019-04-27T07:29:39.144Z,99.70
2019-04-27T07:32:09.296Z,99.50
2019-04-27T07:34:38.771Z,98.90
2019-04-27T07:37:07.090Z,97.60
2019-04-27T07:39:35.648Z,97.60
2019-04-27T07:42:04.272Z,96.70
2019-04-27T07:44:49.999Z,97.10
2019-04-27T07:47:22.688Z,97.10
2019-04-27T07:49:50.899Z,96.40
2019-04-27T07:52:20.585Z,95.40
2019-04-27T07:54:49.307Z,95.10
2019-04-27T07:57:19.438Z,96.20
2019-04-27T07:59:47.428Z,95.70
2019-04-27T08:02:15.768Z,95.20
2019-04-27T08:04:44.037Z,93.90
2019-04-27T08:07:12.426Z,93.70
2019-04-27T08:09:40.800Z,93.00
2019-04-27T08:12:10.715Z,91.70
2019-04-27T08:14:39.371Z,91.60
2019-04-27T08:17:09.721Z,87.00
2019-04-27T08:19:39.432Z,91.10
2019-04-27T08:22:09.586Z,91.20
2019-04-27T08:24:39.563Z,90.00
2019-04-27T08:27:33.450Z,90.20
2019-04-27T08:30:20.056Z,84.50
2019-04-27T08:32:49.727Z,84.50
2019-04-27T08:35:19.498Z,81.70
2019-04-27T08:37:49.268Z,83.10
2019-04-27T08:40:19.244Z,80.60
2019-04-27T08:42:49.170Z,81.40
2019-04-27T08:45:19.359Z,82.50
2019-04-27T08:47:49.852Z,84.50
2019-04-27T08:50:19.032Z,91.80
2019-04-27T08:53:06.586Z,92.70
2019-04-27T08:55:34.941Z,92.40
2019-04-27T08:58:03.141Z,92.30
2019-04-27T09:00:31.467Z,93.30
2019-04-27T09:02:59.701Z,92.80
2019-04-27T09:05:28.892Z,92.30
2019-04-27T09:08:16.665Z,92.50
2019-04-27T09:11:08.800Z,93.20
2019-04-27T09:13:48.658Z,93.10
2019-04-27T09:16:39.633Z,92.90
2019-04-27T09:19:25.725Z,93.60
2019-04-27T09:22:12.244Z,92.90
2019-04-27T09:24:31.000Z,92.50
2019-04-27T09:26:59.613Z,92.40
2019-04-27T09:29:29.520Z,92.00
2019-04-27T09:31:59.613Z,91.90
2019-04-27T09:34:28.861Z,91.70
2019-04-27T09:36:57.049Z,91.90
2019-04-27T09:39:26.516Z,92.00
2019-04-27T09:41:57.051Z,91.70
2019-04-27T09:44:26.551Z,90.70
2019-04-27T09:47:14.007Z,91.00
2019-04-27T09:49:42.156Z,90.00
2019-04-27T09:52:10.235Z,90.30
2019-04-27T09:54:38.361Z,90.20
2019-04-27T09:57:07.101Z,90.20
2019-04-27T09:59:35.581Z,88.70
2019-04-27T10:02:04.213Z,88.50
2019-04-27T10:04:32.437Z,88.00
2019-04-27T10:07:00.611Z,87.10
2019-04-27T10:09:29.682Z,87.70
2019-04-27T10:11:57.897Z,87.00
2019-04-27T10:14:26.532Z,87.10
2019-04-27T10:16:55.776Z,87.00
2019-04-27T10:19:30.734Z,85.20
2019-04-27T10:21:54.154Z,88.30
2019-04-27T10:24:22.293Z,87.50
2019-04-27T10:26:50.518Z,88.20
2019-04-27T10:29:18.387Z,85.90
2019-04-27T10:31:48.299Z,85.60
2019-04-27T10:34:16.695Z,84.70
2019-04-27T10:36:46.082Z,84.00
2019-04-27T10:39:14.555Z,82.90
2019-04-27T10:41:42.834Z,84.70
2019-04-27T10:44:11.092Z,84.70
2019-04-27T10:46:39.518Z,84.10
2019-04-27T10:49:07.953Z,85.80
2019-04-27T10:51:36.487Z,88.40
2019-04-27T10:54:05.599Z,91.20
2019-04-27T10:56:35.957Z,90.60
2019-04-27T10:59:06.536Z,91.60
2019-04-27T11:01:35.960Z,91.10
2019-04-27T11:04:19.738Z,93.30
2019-04-27T11:06:54.004Z,93.80
2019-04-27T11:09:22.363Z,92.20
2019-04-27T11:11:50.430Z,91.70
2019-04-27T11:14:18.858Z,91.80
2019-04-27T11:16:46.965Z,91.70
2019-04-27T11:19:16.956Z,92.40
2019-04-27T11:21:45.298Z,92.20
2019-04-27T11:24:13.548Z,91.60
2019-04-27T11:26:41.565Z,91.40
2019-04-27T11:29:09.815Z,91.60
2019-04-27T11:31:38.143Z,90.00
2019-04-27T11:34:06.835Z,91.40
2019-04-27T11:37:01.121Z,92.00
2019-04-27T11:39:29.487Z,92.00
2019-04-27T11:41:57.539Z,90.70
2019-04-27T11:44:25.862Z,90.70
2019-04-27T11:46:55.554Z,91.80
2019-04-27T11:49:25.685Z,92.20
2019-04-27T11:51:54.149Z,91.50
2019-04-27T11:54:22.202Z,89.50
2019-04-27T11:56:50.362Z,90.40
2019-04-27T11:59:18.552Z,90.50
2019-04-27T12:01:46.817Z,90.20
2019-04-27T12:04:16.119Z,90.40
2019-04-27T12:06:46.127Z,90.70
2019-04-27T12:09:14.418Z,90.60
2019-04-27T12:11:42.697Z,90.20
2019-04-27T12:14:10.873Z,90.60
2019-04-27T12:16:38.930Z,91.30
2019-04-27T12:19:07.286Z,91.10
2019-04-27T12:21:36.216Z,91.10
2019-04-27T12:24:05.703Z,91.40
2019-04-27T12:26:57.463Z,91.10
2019-04-27T12:29:45.425Z,91.80
2019-04-27T12:32:15.678Z,92.60
2019-04-27T12:34:43.857Z,92.10
2019-04-27T12:37:12.050Z,92.00
2019-04-27T12:39:40.317Z,91.10
2019-04-27T12:42:08.613Z,91.20
2019-04-27T12:44:42.203Z,92.40
2019-04-27T12:47:07.004Z,91.40
2019-04-27T12:49:36.236Z,90.30
2019-04-27T12:52:05.894Z,88.80
2019-04-27T12:54:42.335Z,90.20
2019-04-27T12:57:28.629Z,89.20
2019-04-27T13:00:16.556Z,88.10
2019-04-27T13:02:44.876Z,88.60
2019-04-27T13:05:13.455Z,89.60
2019-04-27T13:07:41.783Z,89.30
2019-04-27T13:10:10.278Z,90.10
2019-04-27T13:12:38.591Z,90.90
2019-04-27T13:15:07.670Z,90.40
2019-04-27T13:17:36.628Z,88.80
2019-04-27T13:20:06.296Z,89.50
2019-04-27T13:22:37.530Z,91.00
2019-04-27T13:25:06.297Z,90.20
2019-04-27T13:27:34.122Z,90.60
2019-04-27T13:30:04.773Z,91.30
2019-04-27T13:32:31.713Z,91.90
2019-04-27T13:35:00.075Z,92.70
2019-04-27T13:37:37.701Z,93.40
2019-04-27T13:40:09.640Z,92.10
2019-04-27T13:42:42.877Z,93.30
2019-04-27T13:45:17.573Z,93.10
2019-04-27T13:47:52.614Z,93.80
2019-04-27T13:50:29.657Z,93.90
2019-04-27T13:52:58.050Z,93.40
2019-04-27T13:55:26.283Z,94.40
2019-04-27T13:57:54.441Z,95.10
2019-04-27T14:00:22.879Z,95.40
2019-04-27T14:02:51.110Z,94.80
2019-04-27T14:05:19.189Z,95.60
2019-04-27T14:07:49.303Z,95.40
2019-04-27T14:10:17.982Z,96.10
2019-04-27T14:12:48.868Z,96.60
2019-04-27T14:15:18.658Z,95.70
2019-04-27T14:17:47.039Z,95.50
2019-04-27T14:20:15.281Z,95.20
2019-04-27T14:22:43.629Z,96.70
2019-04-27T14:25:11.955Z,96.60
2019-04-27T14:27:41.055Z,95.10
2019-04-27T14:30:11.541Z,96.70
2019-04-27T14:32:42.176Z,95.40
2019-04-27T14:35:09.953Z,95.80
2019-04-27T14:37:38.622Z,95.10
2019-04-27T14:40:08.758Z,96.90
2019-04-27T14:42:36.932Z,96.20
2019-04-27T14:45:08.998Z,95.30
2019-04-27T14:47:38.308Z,94.90
2019-04-27T14:50:08.857Z,94.50
2019-04-27T14:52:39.110Z,94.50
2019-04-27T14:55:08.719Z,94.20
2019-04-27T14:57:37.032Z,94.10
2019-04-27T15:00:05.832Z,94.60
2019-04-27T15:02:34.025Z,94.60
2019-04-27T15:05:02.368Z,95.40
2019-04-27T15:07:30.588Z,95.70
2019-04-27T15:09:58.836Z,95.00
2019-04-27T15:12:30.775Z,96.00
2019-04-27T15:15:16.289Z,95.70
2019-04-27T15:17:44.536Z,95.50
2019-04-27T15:20:22.616Z,94.50
2019-04-27T15:22:56.748Z,94.50
2019-04-27T15:25:21.200Z,94.00
2019-04-27T15:27:53.849Z,93.60
2019-04-27T15:30:27.850Z,93.50
2019-04-27T15:33:30.714Z,94.00
2019-04-27T15:36:07.617Z,94.40
2019-04-27T15:38:42.938Z,94.70
2019-04-27T15:41:28.924Z,94.00
2019-04-27T15:43:54.603Z,93.90
2019-04-27T15:46:22.929Z,94.40
2019-04-27T15:48:54.130Z,94.60
2019-04-27T15:51:21.386Z,94.70
2019-04-27T15:53:50.892Z,94.20
2019-04-27T15:56:21.615Z,95.30
2019-04-27T15:58:49.326Z,94.60
2019-04-27T16:01:18.121Z,94.90
2019-04-27T16:03:48.047Z,95.60
2019-04-27T16:06:16.651Z,95.70
2019-04-27T16:08:46.922Z,96.40
2019-04-27T16:11:16.745Z,96.90
2019-04-27T16:13:45.013Z,97.20
2019-04-27T16:16:13.182Z,95.90
2019-04-27T16:18:41.454Z,96.30
2019-04-27T16:21:10.896Z,95.80
2019-04-27T16:23:42.870Z,96.60
2019-04-27T16:26:11.166Z,98.10
2019-04-27T16:28:43.119Z,97.50
2019-04-27T16:31:09.457Z,97.80
2019-04-27T16:33:38.837Z,97.60
2019-04-27T16:36:07.544Z,97.70
2019-04-27T16:38:48.211Z,98.00
2019-04-27T16:41:18.052Z,99.00
2019-04-27T16:43:46.459Z,99.90
2019-04-27T16:46:14.811Z,99.90
2019-04-27T16:48:43.031Z,99.90
2019-04-27T16:51:11.249Z,99.90
2019-04-27T16:53:41.093Z,99.90
2019-04-27T16:56:14.653Z,99.90
2019-04-27T16:58:39.979Z,99.90
2019-04-27T17:01:13.498Z,99.90
2019-04-27T17:03:41.639Z,99.90
2019-04-27T17:06:10.008Z,99.90
2019-04-27T17:08:39.372Z,99.90
2019-04-27T17:11:11.535Z,99.90
2019-04-27T17:13:44.264Z,99.90
2019-04-27T17:16:39.006Z,99.90
2019-04-27T17:19:28.697Z,99.90
2019-04-27T17:21:56.717Z,99.90
2019-04-27T17:24:42.714Z,99.90
2019-04-27T17:27:11.140Z,99.90
2019-04-27T17:29:40.452Z,99.90
2019-04-27T17:32:11.957Z,99.90
2019-04-27T17:34:40.113Z,99.90
2019-04-27T17:37:08.467Z,99.90
2019-04-27T17:39:38.562Z,99.90
2019-04-27T17:42:08.431Z,99.90
2019-04-27T17:44:36.861Z,99.90
2019-04-27T17:47:05.196Z,99.90
2019-04-27T17:49:33.341Z,99.90
2019-04-27T17:52:01.700Z,99.90
2019-04-27T17:54:29.911Z,99.90
2019-04-27T17:56:58.114Z,99.90
2019-04-27T17:59:26.207Z,99.90
2019-04-27T18:02:00.870Z,99.90
2019-04-27T18:04:24.559Z,99.90
2019-04-27T18:06:55.583Z,99.90
2019-04-27T18:09:22.605Z,99.90
2019-04-27T18:11:50.838Z,99.90
2019-04-27T18:14:19.383Z,99.90
2019-04-27T18:16:48.216Z,99.90
2019-04-27T18:19:30.941Z,99.90
2019-04-27T18:22:03.634Z,99.90
2019-04-27T18:24:45.742Z,99.90
2019-04-27T18:27:21.639Z,99.90
2019-04-27T18:29:49.699Z,99.90
2019-04-27T18:32:18.282Z,99.90
2019-04-27T18:34:49.322Z,99.90
2019-04-27T18:37:20.961Z,99.90
2019-04-27T18:39:51.046Z,99.90
2019-04-27T18:42:18.147Z,99.90
2019-04-27T18:44:48.458Z,99.90
2019-04-27T18:47:16.731Z,99.90
2019-04-27T18:50:22.459Z,99.90
2019-04-27T18:52:53.735Z,99.90
2019-04-27T18:55:21.911Z,99.90
2019-04-27T18:57:54.113Z,99.90
2019-04-27T19:00:20.968Z,99.90
2019-04-27T19:02:50.371Z,99.90
2019-04-27T19:05:19.017Z,99.90
2019-04-27T19:07:48.406Z,99.90
2019-04-27T19:10:18.936Z,99.90
2019-04-27T19:12:48.405Z,99.90
2019-04-27T19:15:18.390Z,99.90
2019-04-27T19:17:48.734Z,99.90
2019-04-27T19:20:18.748Z,99.90
2019-04-27T19:22:49.793Z,99.90
2019-04-27T19:25:34.925Z,99.90
2019-04-27T19:28:21.238Z,99.90
2019-04-27T19:30:57.671Z,99.90
2019-04-27T19:33:30.899Z,99.90
2019-04-27T19:36:06.269Z,99.90
2019-04-27T19:38:35.592Z,99.90
2019-04-27T19:41:09.931Z,99.90
2019-04-27T19:43:44.367Z,99.90
2019-04-27T19:46:15.510Z,99.90
2019-04-27T19:48:45.733Z,99.90
2019-04-27T19:51:15.050Z,99.90
2019-04-27T19:53:45.248Z,99.90
2019-04-27T19:56:21.378Z,99.90
2019-04-27T19:58:58.219Z,99.90
2019-04-27T20:01:35.198Z,99.90
2019-04-27T20:04:23.608Z,99.90
2019-04-27T20:06:55.878Z,99.90
2019-04-27T20:09:33.012Z,99.90
2019-04-27T20:12:02.910Z,99.90
2019-04-27T20:14:50.751Z,99.90
2019-04-27T20:17:20.560Z,99.90
2019-04-27T20:19:52.781Z,99.90
2019-04-27T20:22:24.398Z,99.90
2019-04-27T20:24:53.037Z,99.90
2019-04-27T20:27:21.444Z,99.90
2019-04-27T20:29:49.718Z,99.90
2019-04-27T20:32:17.987Z,99.90
2019-04-27T20:34:46.364Z,99.90
2019-04-27T20:37:15.429Z,99.90
2019-04-27T20:39:43.479Z,99.90
2019-04-27T20:42:12.625Z,99.90
2019-04-27T20:44:41.323Z,99.90
2019-04-27T20:47:10.042Z,99.90
2019-04-27T20:49:38.377Z,99.90
2019-04-27T20:52:32.065Z,99.90
2019-04-27T20:55:01.479Z,99.90
2019-04-27T20:57:31.604Z,99.90
2019-04-27T20:59:59.565Z,99.90
2019-04-27T21:02:56.137Z,99.90
2019-04-27T21:05:52.443Z,99.90
2019-04-27T21:08:21.305Z,99.90
2019-04-27T21:10:51.420Z,99.90
2019-04-27T21:13:19.646Z,99.90
2019-04-27T21:15:47.936Z,99.90
2019-04-27T21:18:16.146Z,99.90
2019-04-27T21:20:44.354Z,99.90
2019-04-27T21:23:12.614Z,99.90
2019-04-27T21:25:42.045Z,99.90
2019-04-27T21:28:17.339Z,99.90
2019-04-27T21:30:40.614Z,99.90
2019-04-27T21:33:08.810Z,99.90
2019-04-27T21:35:37.009Z,99.90
2019-04-27T21:38:05.341Z,99.90
2019-04-27T21:40:33.663Z,99.90
2019-04-27T21:43:01.754Z,99.90
2019-04-27T21:45:31.642Z,99.90
2019-04-27T21:48:00.836Z,99.90
2019-04-27T21:50:31.245Z,99.90
2019-04-27T21:53:37.765Z,99.90
2019-04-27T21:56:08.075Z,99.90
2019-04-27T21:58:36.328Z,99.90
2019-04-27T22:01:23.665Z,99.90
2019-04-27T22:03:52.783Z,99.90
2019-04-27T22:06:21.218Z,99.90
2019-04-27T22:08:51.013Z,99.90
2019-04-27T22:11:19.414Z,99.90
2019-04-27T22:13:47.729Z,99.90
2019-04-27T22:16:16.031Z,99.90
2019-04-27T22:18:44.585Z,99.90
2019-04-27T22:21:12.943Z,99.90
2019-04-27T22:23:54.631Z,99.90
2019-04-27T22:26:22.914Z,99.90
2019-04-27T22:28:52.019Z,99.90
2019-04-27T22:31:21.150Z,99.90
2019-04-27T22:33:52.576Z,99.90
2019-04-27T22:36:21.162Z,99.90
2019-04-27T22:38:51.416Z,99.90
2019-04-27T22:41:28.114Z,99.90
2019-04-27T22:44:14.126Z,99.90
2019-04-27T22:46:43.596Z,99.90
2019-04-27T22:49:11.897Z,99.90
2019-04-27T22:51:41.181Z,99.90
2019-04-27T22:54:11.627Z,99.90
2019-04-27T22:56:42.161Z,99.90
2019-04-27T22:59:31.579Z,99.90
2019-04-27T23:02:21.580Z,99.90
2019-04-27T23:04:56.662Z,99.90
2019-04-27T23:07:24.918Z,99.90
2019-04-27T23:09:53.239Z,99.90
2019-04-27T23:12:23.080Z,99.90
2019-04-27T23:14:51.034Z,99.90
2019-04-27T23:17:37.378Z,99.90
2019-04-27T23:20:06.059Z,99.90
2019-04-27T23:22:34.361Z,99.90
2019-04-27T23:25:02.724Z,99.90
2019-04-27T23:27:31.856Z,99.90
2019-04-27T23:30:01.365Z,99.90
2019-04-27T23:32:36.654Z,99.90
2019-04-27T23:35:05.157Z,99.90
2019-04-27T23:37:33.399Z,99.90
2019-04-27T23:40:02.925Z,99.90
2019-04-27T23:42:31.609Z,99.90
2019-04-27T23:44:59.766Z,99.90
2019-04-27T23:47:27.903Z,99.90
2019-04-27T23:49:56.353Z,99.90
2019-04-27T23:52:44.097Z,99.90
2019-04-27T23:55:12.319Z,99.90
2019-04-27T23:57:40.656Z,99.90
